sensor_id;sensor_type;location;lat;lon;timestamp;P1;durP1;ratioP1;P2;durP2;ratioP2
13263;SDS011;6700;51.988;7.646;2022-07-09T00:00:45;4.80;;;3.80;;
13263;SDS011;6700;51.988;7.646;2022-07-09T00:03:14;5.07;;;3.50;;
13263;SDS011;6700;51.988;7.646;2022-07-09T00:05:42;5.57;;;3.70;;
13263;SDS011;6700;51.988;7.646;2022-07-09T00:08:10;5.97;;;4.33;;
13263;SDS011;6700;51.988;7.646;2022-07-09T00:10:38;6.00;;;3.70;;
13263;SDS011;6700;51.988;7.646;2022-07-09T00:13:06;5.37;;;3.90;;
13263;SDS011;6700;51.988;7.646;2022-07-09T00:15:35;6.47;;;3.53;;
13263;SDS011;6700;51.988;7.646;2022-07-09T00:18:03;4.37;;;3.83;;
13263;SDS011;6700;51.988;7.646;2022-07-09T00:20:31;6.93;;;3.63;;
13263;SDS011;6700;51.988;7.646;2022-07-09T00:23:00;6.80;;;3.80;;
13263;SDS011;6700;51.988;7.646;2022-07-09T00:25:28;9.27;;;3.27;;
13263;SDS011;6700;51.988;7.646;2022-07-09T00:27:56;5.10;;;3.67;;
13263;SDS011;6700;51.988;7.646;2022-07-09T00:30:24;4.77;;;3.50;;
13263;SDS011;6700;51.988;7.646;2022-07-09T00:32:53;6.63;;;3.73;;
13263;SDS011;6700;51.988;7.646;2022-07-09T00:35:21;7.00;;;3.90;;
13263;SDS011;6700;51.988;7.646;2022-07-09T00:37:49;9.53;;;4.30;;
13263;SDS011;6700;51.988;7.646;2022-07-09T00:40:17;8.33;;;4.00;;
13263;SDS011;6700;51.988;7.646;2022-07-09T00:42:46;6.00;;;3.90;;
13263;SDS011;6700;51.988;7.646;2022-07-09T00:45:14;6.80;;;4.40;;
13263;SDS011;6700;51.988;7.646;2022-07-09T00:47:44;5.47;;;3.97;;
13263;SDS011;6700;51.988;7.646;2022-07-09T00:50:12;9.90;;;4.20;;
13263;SDS011;6700;51.988;7.646;2022-07-09T00:52:41;6.90;;;4.57;;
13263;SDS011;6700;51.988;7.646;2022-07-09T00:55:09;5.00;;;4.50;;
13263;SDS011;6700;51.988;7.646;2022-07-09T00:57:38;8.03;;;4.80;;
13263;SDS011;6700;51.988;7.646;2022-07-09T01:00:07;5.53;;;4.70;;
13263;SDS011;6700;51.988;7.646;2022-07-09T01:02:35;6.97;;;4.80;;
13263;SDS011;6700;51.988;7.646;2022-07-09T01:05:04;6.67;;;5.23;;
13263;SDS011;6700;51.988;7.646;2022-07-09T01:07:32;7.37;;;5.50;;
13263;SDS011;6700;51.988;7.646;2022-07-09T01:10:01;7.80;;;5.17;;
13263;SDS011;6700;51.988;7.646;2022-07-09T01:12:29;8.60;;;5.77;;
13263;SDS011;6700;51.988;7.646;2022-07-09T01:14:59;6.17;;;5.57;;
13263;SDS011;6700;51.988;7.646;2022-07-09T01:17:27;8.63;;;5.53;;
13263;SDS011;6700;51.988;7.646;2022-07-09T01:19:55;6.77;;;5.67;;
13263;SDS011;6700;51.988;7.646;2022-07-09T01:22:24;5.63;;;5.03;;
13263;SDS011;6700;51.988;7.646;2022-07-09T01:24:52;7.17;;;5.67;;
13263;SDS011;6700;51.988;7.646;2022-07-09T01:27:21;8.80;;;6.73;;
13263;SDS011;6700;51.988;7.646;2022-07-09T01:29:50;6.87;;;5.90;;
13263;SDS011;6700;51.988;7.646;2022-07-09T01:32:20;8.70;;;6.40;;
13263;SDS011;6700;51.988;7.646;2022-07-09T01:34:48;6.83;;;6.13;;
13263;SDS011;6700;51.988;7.646;2022-07-09T01:37:18;7.77;;;6.10;;
13263;SDS011;6700;51.988;7.646;2022-07-09T01:39:47;9.57;;;6.10;;
13263;SDS011;6700;51.988;7.646;2022-07-09T01:42:18;8.73;;;6.53;;
13263;SDS011;6700;51.988;7.646;2022-07-09T01:44:47;7.03;;;6.33;;
13263;SDS011;6700;51.988;7.646;2022-07-09T01:47:16;8.33;;;5.90;;
13263;SDS011;6700;51.988;7.646;2022-07-09T01:49:44;7.77;;;6.23;;
13263;SDS011;6700;51.988;7.646;2022-07-09T01:52:12;7.63;;;5.43;;
13263;SDS011;6700;51.988;7.646;2022-07-09T01:54:40;9.00;;;5.80;;
13263;SDS011;6700;51.988;7.646;2022-07-09T01:57:08;6.07;;;5.40;;
13263;SDS011;6700;51.988;7.646;2022-07-09T01:59:37;8.93;;;5.67;;
13263;SDS011;6700;51.988;7.646;2022-07-09T02:02:06;7.00;;;5.63;;
13263;SDS011;6700;51.988;7.646;2022-07-09T02:04:34;8.07;;;5.93;;
13263;SDS011;6700;51.988;7.646;2022-07-09T02:07:03;6.20;;;5.60;;
13263;SDS011;6700;51.988;7.646;2022-07-09T02:09:32;9.00;;;6.03;;
13263;SDS011;6700;51.988;7.646;2022-07-09T02:12:00;7.57;;;5.97;;
13263;SDS011;6700;51.988;7.646;2022-07-09T02:14:28;9.97;;;6.17;;
13263;SDS011;6700;51.988;7.646;2022-07-09T02:16:58;9.27;;;5.60;;
13263;SDS011;6700;51.988;7.646;2022-07-09T02:19:26;8.37;;;6.47;;
13263;SDS011;6700;51.988;7.646;2022-07-09T02:21:54;7.40;;;5.70;;
13263;SDS011;6700;51.988;7.646;2022-07-09T02:24:22;12.53;;;7.60;;
13263;SDS011;6700;51.988;7.646;2022-07-09T02:26:50;7.23;;;5.63;;
13263;SDS011;6700;51.988;7.646;2022-07-09T02:29:18;9.30;;;6.03;;
13263;SDS011;6700;51.988;7.646;2022-07-09T02:31:47;8.77;;;6.53;;
13263;SDS011;6700;51.988;7.646;2022-07-09T02:34:15;7.77;;;6.20;;
13263;SDS011;6700;51.988;7.646;2022-07-09T02:36:43;8.00;;;5.63;;
13263;SDS011;6700;51.988;7.646;2022-07-09T02:39:13;10.60;;;6.40;;
13263;SDS011;6700;51.988;7.646;2022-07-09T02:41:41;7.80;;;5.63;;
13263;SDS011;6700;51.988;7.646;2022-07-09T02:44:09;9.17;;;6.10;;
13263;SDS011;6700;51.988;7.646;2022-07-09T02:46:37;9.90;;;5.87;;
13263;SDS011;6700;51.988;7.646;2022-07-09T02:49:06;7.53;;;5.60;;
13263;SDS011;6700;51.988;7.646;2022-07-09T02:51:34;7.13;;;4.80;;
13263;SDS011;6700;51.988;7.646;2022-07-09T02:54:03;6.77;;;5.27;;
13263;SDS011;6700;51.988;7.646;2022-07-09T02:56:31;5.93;;;5.37;;
13263;SDS011;6700;51.988;7.646;2022-07-09T02:58:59;7.50;;;4.37;;
13263;SDS011;6700;51.988;7.646;2022-07-09T03:01:29;9.00;;;5.47;;
13263;SDS011;6700;51.988;7.646;2022-07-09T03:03:57;8.27;;;4.70;;
13263;SDS011;6700;51.988;7.646;2022-07-09T03:06:25;6.80;;;5.13;;
13263;SDS011;6700;51.988;7.646;2022-07-09T03:08:56;9.23;;;5.33;;
13263;SDS011;6700;51.988;7.646;2022-07-09T03:11:24;7.17;;;4.50;;
13263;SDS011;6700;51.988;7.646;2022-07-09T03:13:52;7.80;;;4.70;;
13263;SDS011;6700;51.988;7.646;2022-07-09T03:16:21;7.60;;;5.07;;
13263;SDS011;6700;51.988;7.646;2022-07-09T03:18:49;9.17;;;4.80;;
13263;SDS011;6700;51.988;7.646;2022-07-09T03:21:17;6.30;;;4.80;;
13263;SDS011;6700;51.988;7.646;2022-07-09T03:23:45;6.77;;;4.97;;
13263;SDS011;6700;51.988;7.646;2022-07-09T03:26:13;8.73;;;4.73;;
13263;SDS011;6700;51.988;7.646;2022-07-09T03:28:42;7.07;;;6.00;;
13263;SDS011;6700;51.988;7.646;2022-07-09T03:31:10;7.80;;;4.87;;
13263;SDS011;6700;51.988;7.646;2022-07-09T03:33:38;7.10;;;4.50;;
13263;SDS011;6700;51.988;7.646;2022-07-09T03:36:06;8.53;;;5.83;;
13263;SDS011;6700;51.988;7.646;2022-07-09T03:38:36;7.57;;;4.37;;
13263;SDS011;6700;51.988;7.646;2022-07-09T03:41:04;6.37;;;4.53;;
13263;SDS011;6700;51.988;7.646;2022-07-09T03:43:32;6.20;;;5.53;;
13263;SDS011;6700;51.988;7.646;2022-07-09T03:46:01;6.93;;;4.07;;
13263;SDS011;6700;51.988;7.646;2022-07-09T03:48:30;7.23;;;4.80;;
13263;SDS011;6700;51.988;7.646;2022-07-09T03:50:58;6.43;;;4.63;;
13263;SDS011;6700;51.988;7.646;2022-07-09T03:53:27;6.60;;;4.50;;
13263;SDS011;6700;51.988;7.646;2022-07-09T03:55:55;6.57;;;4.47;;
13263;SDS011;6700;51.988;7.646;2022-07-09T03:58:23;8.10;;;4.90;;
13263;SDS011;6700;51.988;7.646;2022-07-09T04:00:53;6.60;;;4.07;;
13263;SDS011;6700;51.988;7.646;2022-07-09T04:03:21;6.90;;;4.40;;
13263;SDS011;6700;51.988;7.646;2022-07-09T04:05:50;5.93;;;3.83;;
13263;SDS011;6700;51.988;7.646;2022-07-09T04:08:18;7.47;;;4.63;;
13263;SDS011;6700;51.988;7.646;2022-07-09T04:10:46;5.30;;;4.77;;
13263;SDS011;6700;51.988;7.646;2022-07-09T04:13:14;10.23;;;4.50;;
13263;SDS011;6700;51.988;7.646;2022-07-09T04:15:43;10.00;;;4.03;;
13263;SDS011;6700;51.988;7.646;2022-07-09T04:18:13;7.90;;;4.43;;
13263;SDS011;6700;51.988;7.646;2022-07-09T04:20:44;8.33;;;4.10;;
13263;SDS011;6700;51.988;7.646;2022-07-09T04:23:12;6.33;;;4.87;;
13263;SDS011;6700;51.988;7.646;2022-07-09T04:25:41;11.50;;;4.27;;
13263;SDS011;6700;51.988;7.646;2022-07-09T04:28:18;6.43;;;4.30;;
13263;SDS011;6700;51.988;7.646;2022-07-09T04:30:46;5.50;;;4.30;;
13263;SDS011;6700;51.988;7.646;2022-07-09T04:33:16;6.90;;;4.10;;
13263;SDS011;6700;51.988;7.646;2022-07-09T04:35:45;5.87;;;4.07;;
13263;SDS011;6700;51.988;7.646;2022-07-09T04:38:13;5.80;;;4.00;;
13263;SDS011;6700;51.988;7.646;2022-07-09T04:40:42;5.63;;;3.63;;
13263;SDS011;6700;51.988;7.646;2022-07-09T04:43:10;6.50;;;4.37;;
13263;SDS011;6700;51.988;7.646;2022-07-09T04:45:38;6.53;;;3.83;;
13263;SDS011;6700;51.988;7.646;2022-07-09T04:48:06;6.17;;;3.93;;
13263;SDS011;6700;51.988;7.646;2022-07-09T04:50:35;10.30;;;6.00;;
13263;SDS011;6700;51.988;7.646;2022-07-09T04:53:03;5.77;;;4.53;;
13263;SDS011;6700;51.988;7.646;2022-07-09T04:55:31;6.97;;;4.20;;
13263;SDS011;6700;51.988;7.646;2022-07-09T04:58:00;5.70;;;3.97;;
13263;SDS011;6700;51.988;7.646;2022-07-09T05:00:28;6.83;;;4.60;;
13263;SDS011;6700;51.988;7.646;2022-07-09T05:02:56;6.73;;;4.37;;
13263;SDS011;6700;51.988;7.646;2022-07-09T05:05:27;6.77;;;4.57;;
13263;SDS011;6700;51.988;7.646;2022-07-09T05:07:56;7.90;;;4.33;;
13263;SDS011;6700;51.988;7.646;2022-07-09T05:10:24;8.50;;;4.80;;
13263;SDS011;6700;51.988;7.646;2022-07-09T05:12:52;6.37;;;4.43;;
13263;SDS011;6700;51.988;7.646;2022-07-09T05:15:21;6.03;;;4.67;;
13263;SDS011;6700;51.988;7.646;2022-07-09T05:17:49;6.60;;;4.03;;
13263;SDS011;6700;51.988;7.646;2022-07-09T05:20:17;9.47;;;4.37;;
13263;SDS011;6700;51.988;7.646;2022-07-09T05:22:45;5.53;;;4.60;;
13263;SDS011;6700;51.988;7.646;2022-07-09T05:25:13;9.07;;;4.50;;
13263;SDS011;6700;51.988;7.646;2022-07-09T05:27:45;7.07;;;5.43;;
13263;SDS011;6700;51.988;7.646;2022-07-09T05:30:15;5.90;;;5.17;;
13263;SDS011;6700;51.988;7.646;2022-07-09T05:32:46;7.57;;;4.73;;
13263;SDS011;6700;51.988;7.646;2022-07-09T05:35:14;6.77;;;5.50;;
13263;SDS011;6700;51.988;7.646;2022-07-09T05:37:44;7.77;;;7.00;;
13263;SDS011;6700;51.988;7.646;2022-07-09T05:40:12;8.90;;;6.43;;
13263;SDS011;6700;51.988;7.646;2022-07-09T05:42:41;10.67;;;6.00;;
13263;SDS011;6700;51.988;7.646;2022-07-09T05:45:10;9.10;;;6.77;;
13263;SDS011;6700;51.988;7.646;2022-07-09T05:47:38;8.73;;;6.60;;
13263;SDS011;6700;51.988;7.646;2022-07-09T05:50:06;8.37;;;6.37;;
13263;SDS011;6700;51.988;7.646;2022-07-09T05:52:35;8.83;;;7.40;;
13263;SDS011;6700;51.988;7.646;2022-07-09T05:55:03;9.60;;;6.70;;
13263;SDS011;6700;51.988;7.646;2022-07-09T05:57:33;7.53;;;6.30;;
13263;SDS011;6700;51.988;7.646;2022-07-09T06:00:02;8.63;;;6.73;;
13263;SDS011;6700;51.988;7.646;2022-07-09T06:02:31;8.47;;;6.90;;
13263;SDS011;6700;51.988;7.646;2022-07-09T06:05:02;9.40;;;7.07;;
13263;SDS011;6700;51.988;7.646;2022-07-09T06:07:31;7.17;;;6.33;;
13263;SDS011;6700;51.988;7.646;2022-07-09T06:09:59;9.83;;;7.13;;
13263;SDS011;6700;51.988;7.646;2022-07-09T06:12:27;8.57;;;7.13;;
13263;SDS011;6700;51.988;7.646;2022-07-09T06:14:56;10.60;;;6.93;;
13263;SDS011;6700;51.988;7.646;2022-07-09T06:17:24;10.00;;;7.33;;
13263;SDS011;6700;51.988;7.646;2022-07-09T06:19:53;9.23;;;6.67;;
13263;SDS011;6700;51.988;7.646;2022-07-09T06:22:21;8.13;;;6.97;;
13263;SDS011;6700;51.988;7.646;2022-07-09T06:24:49;6.83;;;5.73;;
13263;SDS011;6700;51.988;7.646;2022-07-09T06:27:18;7.53;;;6.57;;
13263;SDS011;6700;51.988;7.646;2022-07-09T06:29:46;9.47;;;7.47;;
13263;SDS011;6700;51.988;7.646;2022-07-09T06:32:14;8.23;;;6.17;;
13263;SDS011;6700;51.988;7.646;2022-07-09T06:34:43;6.23;;;5.70;;
13263;SDS011;6700;51.988;7.646;2022-07-09T06:37:12;12.43;;;6.60;;
13263;SDS011;6700;51.988;7.646;2022-07-09T06:39:40;8.07;;;6.83;;
13263;SDS011;6700;51.988;7.646;2022-07-09T06:42:15;8.97;;;5.77;;
13263;SDS011;6700;51.988;7.646;2022-07-09T06:44:47;8.87;;;6.00;;
13263;SDS011;6700;51.988;7.646;2022-07-09T06:47:16;7.77;;;5.93;;
13263;SDS011;6700;51.988;7.646;2022-07-09T06:49:44;9.17;;;5.50;;
13263;SDS011;6700;51.988;7.646;2022-07-09T06:52:17;9.43;;;5.30;;
13263;SDS011;6700;51.988;7.646;2022-07-09T06:54:45;6.27;;;5.67;;
13263;SDS011;6700;51.988;7.646;2022-07-09T06:57:13;5.90;;;5.30;;
13263;SDS011;6700;51.988;7.646;2022-07-09T06:59:43;6.37;;;5.20;;
13263;SDS011;6700;51.988;7.646;2022-07-09T07:02:14;5.83;;;5.33;;
13263;SDS011;6700;51.988;7.646;2022-07-09T07:04:42;6.53;;;4.50;;
13263;SDS011;6700;51.988;7.646;2022-07-09T07:07:11;6.70;;;5.03;;
13263;SDS011;6700;51.988;7.646;2022-07-09T07:09:40;5.45;;;4.15;;
13263;SDS011;6700;51.988;7.646;2022-07-09T07:12:08;5.30;;;4.13;;
13263;SDS011;6700;51.988;7.646;2022-07-09T07:14:36;4.73;;;4.33;;
13263;SDS011;6700;51.988;7.646;2022-07-09T07:17:05;6.80;;;4.30;;
13263;SDS011;6700;51.988;7.646;2022-07-09T07:19:33;6.93;;;4.55;;
13263;SDS011;6700;51.988;7.646;2022-07-09T07:22:01;5.20;;;3.88;;
13263;SDS011;6700;51.988;7.646;2022-07-09T07:24:30;7.03;;;3.90;;
13263;SDS011;6700;51.988;7.646;2022-07-09T07:26:58;6.43;;;3.92;;
13263;SDS011;6700;51.988;7.646;2022-07-09T07:29:27;5.18;;;3.30;;
13263;SDS011;6700;51.988;7.646;2022-07-09T07:31:55;4.43;;;3.63;;
13263;SDS011;6700;51.988;7.646;2022-07-09T07:34:24;3.58;;;3.28;;
13263;SDS011;6700;51.988;7.646;2022-07-09T07:36:52;6.88;;;3.50;;
13263;SDS011;6700;51.988;7.646;2022-07-09T07:39:21;3.55;;;3.22;;
13263;SDS011;6700;51.988;7.646;2022-07-09T07:41:51;6.57;;;2.80;;
13263;SDS011;6700;51.988;7.646;2022-07-09T07:44:19;6.25;;;3.50;;
13263;SDS011;6700;51.988;7.646;2022-07-09T07:46:50;5.18;;;2.30;;
13263;SDS011;6700;51.988;7.646;2022-07-09T07:49:21;2.70;;;2.50;;
13263;SDS011;6700;51.988;7.646;2022-07-09T07:51:49;3.33;;;2.90;;
13263;SDS011;6700;51.988;7.646;2022-07-09T07:54:18;2.83;;;2.58;;
13263;SDS011;6700;51.988;7.646;2022-07-09T07:56:46;4.18;;;2.60;;
13263;SDS011;6700;51.988;7.646;2022-07-09T07:59:16;5.43;;;2.53;;
13263;SDS011;6700;51.988;7.646;2022-07-09T08:01:45;2.70;;;2.50;;
13263;SDS011;6700;51.988;7.646;2022-07-09T08:04:13;3.17;;;2.50;;
13263;SDS011;6700;51.988;7.646;2022-07-09T08:06:41;4.32;;;2.30;;
13263;SDS011;6700;51.988;7.646;2022-07-09T08:09:09;6.32;;;2.20;;
13263;SDS011;6700;51.988;7.646;2022-07-09T08:11:38;6.75;;;2.42;;
13263;SDS011;6700;51.988;7.646;2022-07-09T08:14:06;3.75;;;2.40;;
13263;SDS011;6700;51.988;7.646;2022-07-09T08:16:35;4.13;;;2.67;;
13263;SDS011;6700;51.988;7.646;2022-07-09T08:19:03;4.05;;;2.45;;
13263;SDS011;6700;51.988;7.646;2022-07-09T08:21:31;2.50;;;2.30;;
13263;SDS011;6700;51.988;7.646;2022-07-09T08:23:59;3.38;;;2.20;;
13263;SDS011;6700;51.988;7.646;2022-07-09T08:26:30;3.10;;;2.03;;
13263;SDS011;6700;51.988;7.646;2022-07-09T08:28:59;4.25;;;1.98;;
13263;SDS011;6700;51.988;7.646;2022-07-09T08:31:27;2.13;;;1.90;;
13263;SDS011;6700;51.988;7.646;2022-07-09T08:33:55;2.22;;;1.83;;
13263;SDS011;6700;51.988;7.646;2022-07-09T08:36:23;1.95;;;1.83;;
13263;SDS011;6700;51.988;7.646;2022-07-09T08:38:51;2.10;;;1.88;;
13263;SDS011;6700;51.988;7.646;2022-07-09T08:41:20;1.95;;;1.80;;
13263;SDS011;6700;51.988;7.646;2022-07-09T08:43:52;3.38;;;1.98;;
13263;SDS011;6700;51.988;7.646;2022-07-09T08:46:21;1.92;;;1.58;;
13263;SDS011;6700;51.988;7.646;2022-07-09T08:48:49;1.98;;;1.70;;
13263;SDS011;6700;51.988;7.646;2022-07-09T08:51:17;2.28;;;1.60;;
13263;SDS011;6700;51.988;7.646;2022-07-09T08:53:46;1.88;;;1.70;;
13263;SDS011;6700;51.988;7.646;2022-07-09T08:56:15;2.70;;;1.80;;
13263;SDS011;6700;51.988;7.646;2022-07-09T08:58:43;2.35;;;1.80;;
13263;SDS011;6700;51.988;7.646;2022-07-09T09:01:12;3.67;;;1.60;;
13263;SDS011;6700;51.988;7.646;2022-07-09T09:03:41;2.20;;;1.52;;
13263;SDS011;6700;51.988;7.646;2022-07-09T09:06:10;1.17;;;1.17;;
13263;SDS011;6700;51.988;7.646;2022-07-09T09:08:39;2.92;;;1.58;;
13263;SDS011;6700;51.988;7.646;2022-07-09T09:11:11;1.05;;;1.02;;
13263;SDS011;6700;51.988;7.646;2022-07-09T09:13:41;2.53;;;1.42;;
13263;SDS011;6700;51.988;7.646;2022-07-09T09:16:09;1.80;;;1.55;;
13263;SDS011;6700;51.988;7.646;2022-07-09T09:18:40;3.22;;;1.45;;
13263;SDS011;6700;51.988;7.646;2022-07-09T09:21:08;3.00;;;1.30;;
13263;SDS011;6700;51.988;7.646;2022-07-09T09:23:41;4.05;;;1.50;;
13263;SDS011;6700;51.988;7.646;2022-07-09T09:28:47;3.63;;;1.70;;
13263;SDS011;6700;51.988;7.646;2022-07-09T09:33:47;1.60;;;1.50;;
13263;SDS011;6700;51.988;7.646;2022-07-09T09:36:34;3.67;;;1.83;;
13263;SDS011;6700;51.988;7.646;2022-07-09T09:41:36;1.65;;;1.55;;
13263;SDS011;6700;51.988;7.646;2022-07-09T09:44:05;1.63;;;1.30;;
13263;SDS011;6700;51.988;7.646;2022-07-09T09:46:39;3.00;;;1.52;;
13263;SDS011;6700;51.988;7.646;2022-07-09T09:49:08;2.50;;;1.77;;
13263;SDS011;6700;51.988;7.646;2022-07-09T09:51:38;2.25;;;2.00;;
13263;SDS011;6700;51.988;7.646;2022-07-09T09:54:09;2.45;;;2.00;;
13263;SDS011;6700;51.988;7.646;2022-07-09T09:59:09;3.97;;;1.45;;
13263;SDS011;6700;51.988;7.646;2022-07-09T10:01:38;2.83;;;2.28;;
13263;SDS011;6700;51.988;7.646;2022-07-09T10:04:11;2.38;;;1.80;;
13263;SDS011;6700;51.988;7.646;2022-07-09T10:06:41;2.10;;;1.55;;
13263;SDS011;6700;51.988;7.646;2022-07-09T10:09:11;3.63;;;2.25;;
13263;SDS011;6700;51.988;7.646;2022-07-09T10:11:42;2.42;;;2.22;;
13263;SDS011;6700;51.988;7.646;2022-07-09T10:16:52;3.17;;;1.80;;
13263;SDS011;6700;51.988;7.646;2022-07-09T10:19:24;3.38;;;1.92;;
13263;SDS011;6700;51.988;7.646;2022-07-09T10:21:54;2.75;;;1.50;;
13263;SDS011;6700;51.988;7.646;2022-07-09T10:24:32;2.83;;;2.03;;
13263;SDS011;6700;51.988;7.646;2022-07-09T10:27:03;2.90;;;2.13;;
13263;SDS011;6700;51.988;7.646;2022-07-09T10:32:27;1.85;;;1.73;;
13263;SDS011;6700;51.988;7.646;2022-07-09T10:35:26;3.90;;;2.10;;
13263;SDS011;6700;51.988;7.646;2022-07-09T10:37:55;2.35;;;2.03;;
13263;SDS011;6700;51.988;7.646;2022-07-09T10:40:55;1.90;;;1.70;;
13263;SDS011;6700;51.988;7.646;2022-07-09T10:43:49;2.15;;;1.95;;
13263;SDS011;6700;51.988;7.646;2022-07-09T10:46:18;2.60;;;2.05;;
13263;SDS011;6700;51.988;7.646;2022-07-09T10:48:47;2.65;;;2.10;;
13263;SDS011;6700;51.988;7.646;2022-07-09T10:51:18;2.42;;;2.00;;
13263;SDS011;6700;51.988;7.646;2022-07-09T10:53:48;6.60;;;1.80;;
13263;SDS011;6700;51.988;7.646;2022-07-09T10:56:17;2.40;;;2.20;;
13263;SDS011;6700;51.988;7.646;2022-07-09T10:58:47;2.20;;;1.70;;
13263;SDS011;6700;51.988;7.646;2022-07-09T11:01:18;3.08;;;2.33;;
13263;SDS011;6700;51.988;7.646;2022-07-09T11:03:53;2.58;;;1.90;;
13263;SDS011;6700;51.988;7.646;2022-07-09T11:06:25;2.42;;;2.20;;
13263;SDS011;6700;51.988;7.646;2022-07-09T11:09:10;3.13;;;2.30;;
13263;SDS011;6700;51.988;7.646;2022-07-09T11:11:41;2.20;;;2.05;;
13263;SDS011;6700;51.988;7.646;2022-07-09T11:14:11;3.90;;;2.45;;
13263;SDS011;6700;51.988;7.646;2022-07-09T11:16:41;5.45;;;2.13;;
13263;SDS011;6700;51.988;7.646;2022-07-09T11:19:16;2.45;;;2.25;;
13263;SDS011;6700;51.988;7.646;2022-07-09T11:21:46;2.40;;;2.20;;
13263;SDS011;6700;51.988;7.646;2022-07-09T11:24:17;2.58;;;2.20;;
13263;SDS011;6700;51.988;7.646;2022-07-09T11:26:52;3.22;;;2.50;;
13263;SDS011;6700;51.988;7.646;2022-07-09T11:29:23;2.60;;;2.40;;
13263;SDS011;6700;51.988;7.646;2022-07-09T11:32:34;1.90;;;1.80;;
13263;SDS011;6700;51.988;7.646;2022-07-09T11:35:04;2.00;;;1.90;;
13263;SDS011;6700;51.988;7.646;2022-07-09T11:37:32;2.78;;;2.30;;
13263;SDS011;6700;51.988;7.646;2022-07-09T11:40:00;2.47;;;2.28;;
13263;SDS011;6700;51.988;7.646;2022-07-09T11:42:47;3.15;;;2.13;;
13263;SDS011;6700;51.988;7.646;2022-07-09T11:51:33;2.25;;;2.03;;
13263;SDS011;6700;51.988;7.646;2022-07-09T12:34:21;3.92;;;1.98;;
13263;SDS011;6700;51.988;7.646;2022-07-09T12:37:38;2.10;;;2.00;;
13263;SDS011;6700;51.988;7.646;2022-07-09T13:23:37;1.30;;;1.15;;
13263;SDS011;6700;51.988;7.646;2022-07-09T14:51:06;3.90;;;1.55;;
13263;SDS011;6700;51.988;7.646;2022-07-09T14:53:34;4.55;;;1.60;;
13263;SDS011;6700;51.988;7.646;2022-07-09T14:56:10;3.45;;;1.63;;
13263;SDS011;6700;51.988;7.646;2022-07-09T14:58:39;5.90;;;1.83;;
13263;SDS011;6700;51.988;7.646;2022-07-09T15:01:08;2.72;;;1.65;;
13263;SDS011;6700;51.988;7.646;2022-07-09T15:03:38;8.05;;;1.83;;
13263;SDS011;6700;51.988;7.646;2022-07-09T15:06:06;1.45;;;1.33;;
13263;SDS011;6700;51.988;7.646;2022-07-09T15:08:35;2.22;;;1.30;;
13263;SDS011;6700;51.988;7.646;2022-07-09T15:11:04;2.55;;;1.60;;
13263;SDS011;6700;51.988;7.646;2022-07-09T15:13:32;3.35;;;1.60;;
13263;SDS011;6700;51.988;7.646;2022-07-09T15:16:01;1.60;;;1.50;;
13263;SDS011;6700;51.988;7.646;2022-07-09T15:18:29;5.40;;;1.73;;
13263;SDS011;6700;51.988;7.646;2022-07-09T15:20:57;3.13;;;1.58;;
13263;SDS011;6700;51.988;7.646;2022-07-09T15:23:27;4.10;;;1.90;;
13263;SDS011;6700;51.988;7.646;2022-07-09T15:25:55;3.75;;;1.60;;
13263;SDS011;6700;51.988;7.646;2022-07-09T15:28:23;3.45;;;1.75;;
13263;SDS011;6700;51.988;7.646;2022-07-09T15:30:52;4.90;;;1.75;;
13263;SDS011;6700;51.988;7.646;2022-07-09T15:33:20;3.10;;;1.88;;
13263;SDS011;6700;51.988;7.646;2022-07-09T15:35:48;5.05;;;1.92;;
13263;SDS011;6700;51.988;7.646;2022-07-09T15:38:17;6.38;;;2.10;;
13263;SDS011;6700;51.988;7.646;2022-07-09T15:40:45;3.17;;;2.08;;
13263;SDS011;6700;51.988;7.646;2022-07-09T16:22:48;4.57;;;1.75;;
13263;SDS011;6700;51.988;7.646;2022-07-09T16:25:17;3.17;;;1.65;;
13263;SDS011;6700;51.988;7.646;2022-07-09T16:27:46;2.10;;;1.40;;
13263;SDS011;6700;51.988;7.646;2022-07-09T16:30:15;4.50;;;1.63;;
13263;SDS011;6700;51.988;7.646;2022-07-09T16:32:45;4.82;;;1.70;;
13263;SDS011;6700;51.988;7.646;2022-07-09T16:35:13;3.75;;;2.00;;
13263;SDS011;6700;51.988;7.646;2022-07-09T16:37:41;6.28;;;1.85;;
13263;SDS011;6700;51.988;7.646;2022-07-09T16:40:09;3.38;;;1.50;;
13263;SDS011;6700;51.988;7.646;2022-07-09T16:42:38;3.33;;;2.08;;
13263;SDS011;6700;51.988;7.646;2022-07-09T16:45:06;1.60;;;1.42;;
13263;SDS011;6700;51.988;7.646;2022-07-09T16:47:35;7.18;;;2.05;;
13263;SDS011;6700;51.988;7.646;2022-07-09T16:50:03;2.60;;;1.58;;
13263;SDS011;6700;51.988;7.646;2022-07-09T16:52:33;5.97;;;2.25;;
13263;SDS011;6700;51.988;7.646;2022-07-09T16:55:02;5.38;;;1.50;;
13263;SDS011;6700;51.988;7.646;2022-07-09T16:57:30;3.00;;;1.50;;
13263;SDS011;6700;51.988;7.646;2022-07-09T16:59:59;3.90;;;1.80;;
13263;SDS011;6700;51.988;7.646;2022-07-09T17:02:38;3.03;;;1.63;;
13263;SDS011;6700;51.988;7.646;2022-07-09T17:05:08;9.23;;;1.73;;
13263;SDS011;6700;51.988;7.646;2022-07-09T17:07:38;2.27;;;1.67;;
13263;SDS011;6700;51.988;7.646;2022-07-09T17:10:07;5.55;;;1.60;;
13263;SDS011;6700;51.988;7.646;2022-07-09T17:12:35;4.10;;;1.50;;
13263;SDS011;6700;51.988;7.646;2022-07-09T17:15:04;2.83;;;1.70;;
13263;SDS011;6700;51.988;7.646;2022-07-09T17:17:34;2.97;;;1.40;;
13263;SDS011;6700;51.988;7.646;2022-07-09T17:20:02;2.30;;;1.57;;
13263;SDS011;6700;51.988;7.646;2022-07-09T17:22:33;3.13;;;1.60;;
13263;SDS011;6700;51.988;7.646;2022-07-09T17:25:01;3.70;;;2.17;;
13263;SDS011;6700;51.988;7.646;2022-07-09T17:27:29;3.77;;;1.67;;
13263;SDS011;6700;51.988;7.646;2022-07-09T17:29:57;3.13;;;1.77;;
13263;SDS011;6700;51.988;7.646;2022-07-09T17:32:26;3.23;;;1.57;;
13263;SDS011;6700;51.988;7.646;2022-07-09T17:34:56;4.63;;;1.53;;
13263;SDS011;6700;51.988;7.646;2022-07-09T17:37:24;2.37;;;1.97;;
13263;SDS011;6700;51.988;7.646;2022-07-09T17:39:52;3.03;;;1.50;;
13263;SDS011;6700;51.988;7.646;2022-07-09T17:42:22;3.73;;;1.60;;
13263;SDS011;6700;51.988;7.646;2022-07-09T17:44:50;3.50;;;1.60;;
13263;SDS011;6700;51.988;7.646;2022-07-09T17:47:18;3.17;;;1.40;;
13263;SDS011;6700;51.988;7.646;2022-07-09T17:49:47;3.67;;;2.03;;
13263;SDS011;6700;51.988;7.646;2022-07-09T18:36:26;6.87;;;2.30;;
13263;SDS011;6700;51.988;7.646;2022-07-09T18:39:29;2.90;;;1.70;;
13263;SDS011;6700;51.988;7.646;2022-07-09T18:41:59;5.60;;;2.20;;
13263;SDS011;6700;51.988;7.646;2022-07-09T18:44:37;4.07;;;1.97;;
13263;SDS011;6700;51.988;7.646;2022-07-09T18:47:50;5.67;;;2.07;;
13263;SDS011;6700;51.988;7.646;2022-07-09T18:51:00;4.90;;;1.97;;
13263;SDS011;6700;51.988;7.646;2022-07-09T18:53:42;1.87;;;1.57;;
13263;SDS011;6700;51.988;7.646;2022-07-09T18:56:19;2.53;;;1.90;;
13263;SDS011;6700;51.988;7.646;2022-07-09T18:59:09;7.47;;;2.40;;
13263;SDS011;6700;51.988;7.646;2022-07-09T19:01:37;4.10;;;1.53;;
13263;SDS011;6700;51.988;7.646;2022-07-09T19:04:06;4.40;;;1.70;;
13263;SDS011;6700;51.988;7.646;2022-07-09T19:06:35;3.23;;;1.90;;
13263;SDS011;6700;51.988;7.646;2022-07-09T19:09:03;5.43;;;1.40;;
13263;SDS011;6700;51.988;7.646;2022-07-09T19:11:32;4.17;;;1.77;;
13263;SDS011;6700;51.988;7.646;2022-07-09T19:14:05;3.40;;;1.47;;
13263;SDS011;6700;51.988;7.646;2022-07-09T19:16:35;5.47;;;2.30;;
13263;SDS011;6700;51.988;7.646;2022-07-09T19:19:05;5.53;;;1.87;;
13263;SDS011;6700;51.988;7.646;2022-07-09T19:21:59;3.57;;;1.67;;
13263;SDS011;6700;51.988;7.646;2022-07-09T19:24:30;4.27;;;1.40;;
13263;SDS011;6700;51.988;7.646;2022-07-09T19:26:59;6.37;;;2.03;;
13263;SDS011;6700;51.988;7.646;2022-07-09T19:29:41;2.43;;;1.50;;
13263;SDS011;6700;51.988;7.646;2022-07-09T19:32:33;4.80;;;1.67;;
13263;SDS011;6700;51.988;7.646;2022-07-09T19:35:34;6.80;;;2.43;;
13263;SDS011;6700;51.988;7.646;2022-07-09T19:38:08;3.70;;;1.90;;
13263;SDS011;6700;51.988;7.646;2022-07-09T19:40:36;4.17;;;1.70;;
13263;SDS011;6700;51.988;7.646;2022-07-09T19:43:05;5.80;;;1.80;;
13263;SDS011;6700;51.988;7.646;2022-07-09T19:45:33;3.00;;;1.40;;
13263;SDS011;6700;51.988;7.646;2022-07-09T19:48:04;4.17;;;1.50;;
13263;SDS011;6700;51.988;7.646;2022-07-09T19:51:00;4.77;;;1.70;;
13263;SDS011;6700;51.988;7.646;2022-07-09T19:53:30;6.07;;;1.70;;